createdAt,value
2022-12-17T00:02:28.972Z,61.50
2022-12-17T00:05:14.672Z,61.30
2022-12-17T00:08:00.295Z,61.20
2022-12-17T00:10:46.040Z,61.20
2022-12-17T00:13:38.122Z,61.50
2022-12-17T00:16:26.116Z,61.60
2022-12-17T00:19:11.582Z,61.70
2022-12-17T00:21:57.301Z,61.70
2022-12-17T00:24:43.038Z,61.70
2022-12-17T00:27:28.458Z,61.80
2022-12-17T00:30:14.275Z,61.70
2022-12-17T00:33:00.993Z,61.60
2022-12-17T00:35:46.641Z,61.60
2022-12-17T00:38:34.677Z,61.80
2022-12-17T00:41:20.344Z,61.90
2022-12-17T00:44:05.713Z,61.90
2022-12-17T00:46:51.924Z,61.90
2022-12-17T00:49:39.218Z,61.80
2022-12-17T00:52:24.711Z,61.70
2022-12-17T00:55:10.336Z,61.60
2022-12-17T00:57:56.244Z,61.40
2022-12-17T01:00:41.845Z,61.40
2022-12-17T01:03:26.687Z,61.40
2022-12-17T01:06:14.020Z,61.30
2022-12-17T01:08:59.385Z,61.00
2022-12-17T01:11:44.235Z,60.80
2022-12-17T01:14:30.875Z,60.80
2022-12-17T01:17:16.207Z,60.90
2022-12-17T01:20:01.749Z,61.00
2022-12-17T01:22:48.423Z,60.90
2022-12-17T01:25:34.123Z,60.80
2022-12-17T01:28:19.880Z,61.00
2022-12-17T01:31:05.567Z,61.30
2022-12-17T01:33:51.184Z,61.80
2022-12-17T01:36:37.031Z,62.10
2022-12-17T01:39:24.162Z,62.40
2022-12-17T01:42:10.081Z,62.60
2022-12-17T01:45:12.167Z,62.50
2022-12-17T01:48:01.475Z,62.30
2022-12-17T01:50:51.379Z,62.10
2022-12-17T01:53:43.485Z,61.70
2022-12-17T01:56:30.709Z,61.50
2022-12-17T01:59:16.692Z,61.50
2022-12-17T02:02:02.419Z,61.30
2022-12-17T02:04:48.450Z,61.20
2022-12-17T02:07:47.767Z,61.30
2022-12-17T02:10:42.319Z,61.30
2022-12-17T02:13:36.061Z,61.40
2022-12-17T02:16:28.465Z,61.30
2022-12-17T02:19:18.664Z,61.00
2022-12-17T02:22:11.340Z,60.90
2022-12-17T02:25:06.485Z,60.70
2022-12-17T02:27:54.278Z,60.50
2022-12-17T02:30:40.095Z,60.40
2022-12-17T02:33:26.803Z,60.30
2022-12-17T02:36:17.680Z,60.40
2022-12-17T02:39:03.335Z,60.30
2022-12-17T02:41:50.773Z,60.30
2022-12-17T02:44:40.292Z,60.40
2022-12-17T02:47:28.942Z,60.40
2022-12-17T02:50:14.971Z,60.30
2022-12-17T02:53:04.855Z,60.10
2022-12-17T02:55:50.787Z,60.00
2022-12-17T02:58:36.464Z,60.00
2022-12-17T03:01:24.054Z,59.90
2022-12-17T03:04:09.849Z,59.80
2022-12-17T03:06:55.506Z,59.80
2022-12-17T03:09:41.075Z,59.80
2022-12-17T03:12:35.393Z,59.80
2022-12-17T03:15:21.052Z,59.90
2022-12-17T03:18:07.722Z,59.90
2022-12-17T03:20:53.638Z,59.80
2022-12-17T03:23:39.303Z,59.80
2022-12-17T03:26:25.414Z,59.70
2022-12-17T03:29:10.907Z,59.70
2022-12-17T03:31:56.488Z,59.80
2022-12-17T03:34:39.844Z,59.80
2022-12-17T03:37:25.526Z,59.70
2022-12-17T03:40:11.074Z,59.80
2022-12-17T03:42:56.686Z,59.90
2022-12-17T03:45:42.438Z,59.90
2022-12-17T03:48:31.159Z,59.90
2022-12-17T03:51:18.694Z,59.90
2022-12-17T03:54:05.204Z,60.00
2022-12-17T03:56:51.487Z,59.90
2022-12-17T03:59:37.105Z,60.00
2022-12-17T04:02:23.050Z,60.00
2022-12-17T04:05:08.894Z,60.00
2022-12-17T04:07:55.606Z,60.00
2022-12-17T04:10:41.315Z,60.10
2022-12-17T04:13:27.094Z,60.20
2022-12-17T04:16:12.751Z,60.20
2022-12-17T04:18:58.216Z,60.30
2022-12-17T04:21:43.868Z,60.20
2022-12-17T04:24:30.536Z,60.30
2022-12-17T04:27:18.558Z,60.30
2022-12-17T04:30:04.110Z,60.50
2022-12-17T04:32:49.863Z,60.60
2022-12-17T04:35:35.900Z,60.70
2022-12-17T04:38:21.637Z,60.80
2022-12-17T04:41:08.482Z,61.00
2022-12-17T04:43:58.138Z,61.10
2022-12-17T04:46:46.966Z,61.30
2022-12-17T04:49:32.291Z,61.40
2022-12-17T04:52:18.065Z,61.60
2022-12-17T04:55:03.601Z,61.80
2022-12-17T04:57:59.280Z,61.90
2022-12-17T05:00:44.723Z,62.10
2022-12-17T05:03:32.295Z,62.20
2022-12-17T05:06:18.388Z,62.40
2022-12-17T05:09:04.305Z,63.20
2022-12-17T05:11:50.133Z,62.60
2022-12-17T05:14:37.110Z,62.80
2022-12-17T05:17:22.452Z,63.00
2022-12-17T05:20:07.955Z,63.00
2022-12-17T05:22:53.423Z,62.70
2022-12-17T05:25:39.128Z,62.60
2022-12-17T05:28:24.761Z,62.40
2022-12-17T05:31:13.073Z,62.50
2022-12-17T05:33:59.002Z,62.70
2022-12-17T05:36:45.298Z,62.90
2022-12-17T05:39:30.689Z,63.20
2022-12-17T05:42:16.385Z,63.50
2022-12-17T05:45:01.942Z,63.80
2022-12-17T05:47:48.866Z,64.00
2022-12-17T05:50:34.449Z,64.00
2022-12-17T05:53:20.891Z,64.10
2022-12-17T05:56:10.199Z,64.10
2022-12-17T05:58:55.914Z,64.30
2022-12-17T06:01:41.843Z,64.50
2022-12-17T06:04:29.621Z,64.60
2022-12-17T06:07:23.671Z,64.80
2022-12-17T06:10:09.409Z,64.70
2022-12-17T06:12:54.993Z,64.70
2022-12-17T06:15:40.352Z,64.70
2022-12-17T06:18:29.613Z,64.70
2022-12-17T06:21:16.383Z,64.60
2022-12-17T06:24:01.732Z,64.60
2022-12-17T06:26:47.596Z,64.50
2022-12-17T06:29:33.173Z,64.50
2022-12-17T06:32:18.736Z,64.40
2022-12-17T06:35:03.986Z,64.50
2022-12-17T06:37:55.995Z,64.50
2022-12-17T06:40:41.511Z,64.60
2022-12-17T06:43:27.449Z,64.50
2022-12-17T06:46:13.073Z,64.50
2022-12-17T06:48:58.609Z,64.50
2022-12-17T06:51:44.139Z,64.50
2022-12-17T06:54:30.893Z,64.40
2022-12-17T06:57:16.687Z,64.30
2022-12-17T07:00:07.728Z,64.30
2022-12-17T07:02:53.096Z,64.20
2022-12-17T07:05:38.682Z,64.10
2022-12-17T07:08:24.010Z,64.00
2022-12-17T07:11:11.060Z,63.90
2022-12-17T07:13:56.731Z,64.60
2022-12-17T07:16:42.012Z,63.90
2022-12-17T07:19:27.836Z,63.90
2022-12-17T07:22:14.733Z,63.90
2022-12-17T07:25:05.358Z,63.90
2022-12-17T07:27:51.493Z,64.00
2022-12-17T07:30:37.351Z,64.10
2022-12-17T07:33:24.269Z,64.00
2022-12-17T07:36:11.782Z,64.00
2022-12-17T07:38:57.523Z,64.00
2022-12-17T07:41:43.327Z,64.00
2022-12-17T07:44:30.368Z,64.10
2022-12-17T07:47:15.959Z,64.00
2022-12-17T07:50:01.289Z,63.90
2022-12-17T07:52:46.638Z,63.90
2022-12-17T07:55:32.325Z,63.80
2022-12-17T07:58:18.923Z,63.80
2022-12-17T08:01:06.282Z,63.80
2022-12-17T08:03:51.940Z,63.80
2022-12-17T08:06:37.372Z,64.00
2022-12-17T08:09:23.723Z,64.20
2022-12-17T08:12:09.307Z,64.40
2022-12-17T08:14:55.104Z,64.50
2022-12-17T08:17:41.988Z,64.50
2022-12-17T08:20:28.711Z,64.40
2022-12-17T08:23:20.195Z,64.60
2022-12-17T08:26:05.827Z,64.50
2022-12-17T08:28:51.587Z,64.40
2022-12-17T08:31:52.087Z,64.30
2022-12-17T08:34:39.392Z,64.30
2022-12-17T08:37:24.953Z,64.20
2022-12-17T08:40:10.612Z,64.10
2022-12-17T08:42:52.583Z,64.20
2022-12-17T08:45:46.285Z,64.10
2022-12-17T08:48:32.131Z,64.10
2022-12-17T08:51:19.061Z,63.80
2022-12-17T08:54:04.585Z,63.70
2022-12-17T08:56:50.212Z,63.60
2022-12-17T08:59:35.492Z,63.70
2022-12-17T09:02:21.539Z,63.70
2022-12-17T09:05:09.492Z,63.70
2022-12-17T09:07:56.319Z,63.70
2022-12-17T09:10:44.001Z,63.70
2022-12-17T09:13:29.596Z,63.50
2022-12-17T09:16:16.541Z,63.40
2022-12-17T09:19:02.123Z,63.40
2022-12-17T09:21:49.511Z,63.30
2022-12-17T09:24:36.430Z,63.20
2022-12-17T09:27:22.343Z,63.10
2022-12-17T09:30:07.771Z,63.00
2022-12-17T09:32:53.468Z,63.10
2022-12-17T09:35:39.162Z,63.10
2022-12-17T09:38:24.574Z,63.10
2022-12-17T09:41:11.825Z,63.00
2022-12-17T09:44:02.564Z,62.90
2022-12-17T09:46:55.263Z,62.80
2022-12-17T09:49:43.533Z,62.80
2022-12-17T09:52:39.591Z,62.80
2022-12-17T09:55:35.533Z,62.70
2022-12-17T09:58:22.935Z,62.70
2022-12-17T10:01:09.200Z,62.70
2022-12-17T10:03:56.539Z,62.70
2022-12-17T10:06:45.797Z,62.60
2022-12-17T10:09:33.032Z,62.70
2022-12-17T10:12:26.806Z,62.80
2022-12-17T10:15:13.571Z,63.00
2022-12-17T10:17:59.328Z,63.00
2022-12-17T10:20:55.937Z,63.20
2022-12-17T10:23:42.748Z,63.20
2022-12-17T10:26:28.112Z,63.20
2022-12-17T10:29:22.805Z,63.20
2022-12-17T10:32:09.723Z,63.10
2022-12-17T10:35:01.764Z,64.00
2022-12-17T10:37:52.998Z,63.30
2022-12-17T10:40:44.243Z,63.30
2022-12-17T10:43:44.646Z,63.30
2022-12-17T10:46:30.481Z,63.30
2022-12-17T10:49:28.309Z,63.20
2022-12-17T10:52:22.719Z,63.20
2022-12-17T10:55:20.572Z,63.20
2022-12-17T10:58:08.573Z,63.10
2022-12-17T11:00:57.606Z,63.20
2022-12-17T11:03:50.461Z,63.30
2022-12-17T11:06:42.850Z,63.50
2022-12-17T11:09:37.523Z,63.70
2022-12-17T11:12:30.279Z,63.70
2022-12-17T11:15:21.535Z,63.80
2022-12-17T11:18:11.613Z,63.80
2022-12-17T11:21:06.133Z,63.90
2022-12-17T11:23:57.507Z,63.80
2022-12-17T11:26:45.796Z,63.80
2022-12-17T11:29:32.225Z,63.80
2022-12-17T11:32:34.321Z,63.60
2022-12-17T11:35:29.846Z,63.50
2022-12-17T11:38:22.832Z,63.30
2022-12-17T11:41:15.448Z,63.30
2022-12-17T11:44:11.403Z,63.30
2022-12-17T11:47:04.579Z,63.40
2022-12-17T11:50:00.546Z,63.40
2022-12-17T11:52:53.398Z,63.30
2022-12-17T11:55:44.835Z,63.30
2022-12-17T11:58:53.390Z,63.20
2022-12-17T12:01:47.949Z,63.20
2022-12-17T12:04:44.841Z,63.40
2022-12-17T12:07:39.706Z,63.50
2022-12-17T12:10:36.152Z,63.50
2022-12-17T12:13:38.364Z,63.60
2022-12-17T12:16:28.752Z,63.60
2022-12-17T12:19:20.307Z,63.50
2022-12-17T12:22:15.597Z,63.50
2022-12-17T12:25:24.923Z,63.50
2022-12-17T12:28:19.806Z,63.50
2022-12-17T12:31:17.221Z,63.30
2022-12-17T12:34:09.413Z,63.20
2022-12-17T12:36:56.303Z,63.20
2022-12-17T12:39:48.140Z,63.20
2022-12-17T12:42:41.389Z,63.10
2022-12-17T12:45:45.416Z,63.10
2022-12-17T12:48:50.812Z,63.20
2022-12-17T12:51:42.072Z,63.20
2022-12-17T12:54:44.244Z,63.30
2022-12-17T12:57:47.514Z,63.30
2022-12-17T13:00:52.846Z,63.40
2022-12-17T13:03:51.303Z,63.30
2022-12-17T13:06:42.235Z,63.30
2022-12-17T13:09:34.567Z,63.30
2022-12-17T13:12:28.885Z,63.20
2022-12-17T13:15:11.630Z,63.20
2022-12-17T13:17:45.359Z,63.20
2022-12-17T13:20:30.443Z,63.10
2022-12-17T13:23:27.711Z,63.10
2022-12-17T13:26:22.583Z,63.20
2022-12-17T13:29:03.923Z,63.30
2022-12-17T13:31:44.926Z,63.40
2022-12-17T13:34:21.154Z,63.50
2022-12-17T13:36:58.256Z,63.40
2022-12-17T13:39:37.479Z,63.40
2022-12-17T13:42:06.136Z,63.40
2022-12-17T13:44:40.786Z,63.30
2022-12-17T13:47:22.582Z,63.40
2022-12-17T13:50:31.640Z,63.40
2022-12-17T13:52:44.240Z,63.30
2022-12-17T13:55:21.000Z,63.30
2022-12-17T13:57:50.853Z,63.40
2022-12-17T14:00:24.605Z,63.30
2022-12-17T14:02:54.234Z,63.20
2022-12-17T14:05:33.157Z,63.20
2022-12-17T14:08:05.381Z,63.30
2022-12-17T14:10:34.034Z,63.40
2022-12-17T14:13:06.438Z,63.50
2022-12-17T14:15:35.039Z,63.60
2022-12-17T14:18:04.688Z,63.70
2022-12-17T14:20:34.997Z,63.80
2022-12-17T14:23:06.686Z,63.80
2022-12-17T14:25:37.963Z,63.90
2022-12-17T14:28:08.049Z,64.00
2022-12-17T14:31:02.593Z,64.00
2022-12-17T14:33:30.772Z,63.90
2022-12-17T14:36:00.657Z,63.90
2022-12-17T14:38:38.262Z,64.00
2022-12-17T14:41:26.682Z,63.90
2022-12-17T14:43:59.867Z,63.70
2022-12-17T14:46:29.184Z,63.70
2022-12-17T14:49:04.100Z,63.60
2022-12-17T14:51:35.909Z,63.60
2022-12-17T14:54:18.538Z,63.50
2022-12-17T14:56:48.341Z,63.60
2022-12-17T14:59:25.234Z,63.70
2022-12-17T15:01:56.499Z,63.80
2022-12-17T15:04:25.042Z,63.70
2022-12-17T15:06:56.488Z,63.70
2022-12-17T15:09:26.092Z,63.70
2022-12-17T15:11:54.354Z,63.70
2022-12-17T15:14:22.501Z,63.70
2022-12-17T15:16:50.675Z,63.80
2022-12-17T15:19:18.848Z,63.80
2022-12-17T15:21:47.036Z,63.80
2022-12-17T15:24:18.943Z,63.90
2022-12-17T15:26:48.818Z,63.90
2022-12-17T15:29:17.075Z,63.90
2022-12-17T15:31:45.320Z,63.90
2022-12-17T15:34:13.626Z,64.00
2022-12-17T15:36:41.784Z,64.00
2022-12-17T15:39:09.957Z,64.00
2022-12-17T15:41:55.639Z,63.80
2022-12-17T15:44:25.233Z,63.90
2022-12-17T15:46:53.376Z,63.80
2022-12-17T15:49:21.956Z,63.90
2022-12-17T15:51:50.091Z,63.80
2022-12-17T15:54:18.231Z,64.60
2022-12-17T15:56:54.224Z,63.80
2022-12-17T15:59:22.472Z,63.90
2022-12-17T16:01:52.388Z,63.90
2022-12-17T16:04:24.987Z,63.90
2022-12-17T16:06:53.498Z,64.10
2022-12-17T16:09:24.460Z,64.30
2022-12-17T16:11:55.220Z,64.30
2022-12-17T16:14:23.524Z,64.20
2022-12-17T16:16:53.396Z,64.10
2022-12-17T16:19:24.648Z,64.30
2022-12-17T16:21:52.818Z,64.30
2022-12-17T16:24:21.082Z,64.40
2022-12-17T16:26:49.266Z,64.40
2022-12-17T16:29:17.651Z,64.40
2022-12-17T16:31:46.217Z,64.30
2022-12-17T16:34:15.896Z,65.10
2022-12-17T16:36:44.147Z,64.40
2022-12-17T16:39:16.644Z,64.40
2022-12-17T16:41:44.924Z,64.40
2022-12-17T16:44:13.277Z,64.40
2022-12-17T16:46:43.052Z,64.50
2022-12-17T16:49:13.427Z,64.50
2022-12-17T16:51:43.091Z,64.40
2022-12-17T16:54:14.970Z,64.40
2022-12-17T16:56:43.231Z,64.40
2022-12-17T16:59:12.645Z,64.30
2022-12-17T17:01:42.548Z,64.20
2022-12-17T17:04:11.553Z,64.10
2022-12-17T17:06:40.871Z,64.10
2022-12-17T17:09:10.505Z,64.10
2022-12-17T17:11:38.929Z,64.20
2022-12-17T17:14:07.860Z,64.30
2022-12-17T17:16:36.727Z,64.40
2022-12-17T17:19:05.661Z,64.40
2022-12-17T17:21:35.229Z,64.30
2022-12-17T17:24:07.106Z,64.20
2022-12-17T17:26:36.519Z,64.00
2022-12-17T17:29:05.479Z,64.00
2022-12-17T17:32:08.550Z,63.80
2022-12-17T17:34:22.945Z,63.80
2022-12-17T17:36:51.089Z,63.80
2022-12-17T17:39:19.236Z,63.80
2022-12-17T17:41:48.767Z,63.80
2022-12-17T17:44:17.229Z,63.90
2022-12-17T17:46:45.505Z,63.90
2022-12-17T17:49:13.856Z,63.90
2022-12-17T17:54:32.552Z,63.90
2022-12-17T17:57:02.084Z,63.90
2022-12-17T17:59:33.655Z,63.90
2022-12-17T18:02:03.740Z,64.00
2022-12-17T18:04:32.672Z,64.00
2022-12-17T18:09:49.276Z,63.80
2022-12-17T18:12:36.220Z,63.80
2022-12-17T18:15:14.272Z,63.80
2022-12-17T18:17:43.898Z,63.70
2022-12-17T18:20:12.836Z,63.90
2022-12-17T18:22:40.996Z,64.10
2022-12-17T18:25:10.473Z,64.10
2022-12-17T18:27:40.407Z,64.20
2022-12-17T18:30:09.536Z,64.30
2022-12-17T18:32:37.703Z,64.40
2022-12-17T18:35:06.513Z,64.40
2022-12-17T18:37:34.784Z,64.40
2022-12-17T18:40:03.083Z,64.40
2022-12-17T18:42:48.715Z,64.30
2022-12-17T18:45:18.342Z,64.20
2022-12-17T18:47:46.549Z,64.30
2022-12-17T18:50:14.862Z,64.40
2022-12-17T18:52:43.103Z,64.50
2022-12-17T18:55:11.736Z,64.60
2022-12-17T18:57:39.878Z,64.60
2022-12-17T19:00:09.361Z,64.60
2022-12-17T19:02:39.249Z,64.40
2022-12-17T19:05:07.955Z,66.90
2022-12-17T19:07:36.100Z,72.30
2022-12-17T19:10:04.390Z,75.30
2022-12-17T19:12:33.117Z,71.90
2022-12-17T19:15:01.326Z,67.40
2022-12-17T19:17:29.524Z,63.90
2022-12-17T19:19:59.047Z,61.10
2022-12-17T19:22:27.169Z,59.50
2022-12-17T19:24:55.396Z,58.70
2022-12-17T19:27:23.567Z,58.20
2022-12-17T19:29:56.455Z,58.00
2022-12-17T19:32:24.842Z,57.80
2022-12-17T19:34:53.019Z,58.00
2022-12-17T19:37:22.558Z,58.20
2022-12-17T19:39:50.743Z,58.40
2022-12-17T19:42:36.589Z,58.80
2022-12-17T19:45:06.012Z,59.00
2022-12-17T19:47:34.166Z,59.30
2022-12-17T19:50:02.310Z,59.40
2022-12-17T19:52:31.939Z,59.50
2022-12-17T19:55:00.126Z,59.70
2022-12-17T19:57:28.323Z,59.90
2022-12-17T19:59:56.470Z,60.00
2022-12-17T20:02:29.679Z,60.10
2022-12-17T20:05:00.548Z,60.40
2022-12-17T20:07:28.735Z,60.50
2022-12-17T20:09:58.262Z,60.80
2022-12-17T20:12:26.435Z,60.90
2022-12-17T20:14:54.584Z,61.10
2022-12-17T20:17:22.728Z,61.40
2022-12-17T20:19:53.344Z,61.60
2022-12-17T20:22:23.196Z,61.70
2022-12-17T20:24:53.222Z,61.80
2022-12-17T20:27:22.913Z,61.70
2022-12-17T20:29:51.046Z,61.60
2022-12-17T20:32:21.239Z,61.40
2022-12-17T20:34:49.482Z,61.40
2022-12-17T20:37:17.700Z,61.30
2022-12-17T20:39:45.873Z,61.30
2022-12-17T20:42:14.141Z,61.30
2022-12-17T20:44:45.495Z,61.30
2022-12-17T20:47:16.895Z,61.30
2022-12-17T20:49:45.035Z,61.30
2022-12-17T20:52:13.181Z,61.30
2022-12-17T20:54:41.352Z,61.40
2022-12-17T20:57:09.501Z,61.50
2022-12-17T20:59:37.752Z,61.60
2022-12-17T21:02:07.527Z,61.80
2022-12-17T21:04:35.759Z,62.10
2022-12-17T21:07:03.913Z,62.30
2022-12-17T21:09:32.124Z,62.60
2022-12-17T21:12:00.431Z,63.00
2022-12-17T21:14:35.163Z,63.40
2022-12-17T21:17:05.166Z,63.70
2022-12-17T21:19:35.086Z,63.80
2022-12-17T21:22:03.592Z,63.90
2022-12-17T21:24:31.745Z,64.10
2022-12-17T21:27:00.010Z,64.20
2022-12-17T21:29:28.331Z,64.30
2022-12-17T21:31:56.514Z,64.20
2022-12-17T21:34:25.335Z,64.10
2022-12-17T21:36:54.919Z,64.10
2022-12-17T21:39:23.109Z,64.20
2022-12-17T21:42:09.029Z,64.20
2022-12-17T21:44:37.533Z,64.30
2022-12-17T21:47:05.960Z,64.50
2022-12-17T21:49:34.110Z,64.60
2022-12-17T21:52:04.826Z,64.70
2022-12-17T21:54:35.676Z,64.60
2022-12-17T21:57:04.477Z,64.60
2022-12-17T21:59:32.768Z,64.50
2022-12-17T22:02:01.099Z,64.50
2022-12-17T22:04:29.509Z,64.30
2022-12-17T22:07:00.673Z,64.20
2022-12-17T22:09:52.810Z,64.00
2022-12-17T22:12:38.692Z,63.90
2022-12-17T22:15:10.942Z,63.80
2022-12-17T22:17:41.292Z,63.70
2022-12-17T22:20:11.104Z,63.50
2022-12-17T22:22:39.355Z,63.40
2022-12-17T22:25:11.667Z,63.30
2022-12-17T22:27:40.853Z,63.20
2022-12-17T22:30:31.409Z,63.10
2022-12-17T22:33:03.963Z,63.00
2022-12-17T22:36:50.480Z,62.90
2022-12-17T22:42:38.545Z,62.90
2022-12-17T22:44:33.412Z,62.90
2022-12-17T22:44:41.332Z,62.80
2022-12-17T22:47:07.620Z,62.80
2022-12-17T22:49:35.766Z,62.80
2022-12-17T22:52:03.989Z,62.70
2022-12-17T22:54:32.446Z,62.80
2022-12-17T22:57:36.869Z,62.80
2022-12-17T22:59:51.504Z,62.90
2022-12-17T23:02:19.811Z,62.80
2022-12-17T23:04:48.091Z,62.70
2022-12-17T23:07:16.267Z,62.70
2022-12-17T23:09:44.498Z,62.70
2022-12-17T23:12:31.448Z,62.90
2022-12-17T23:14:59.665Z,63.10
2022-12-17T23:17:27.813Z,63.10
2022-12-17T23:19:55.959Z,63.10
2022-12-17T23:22:24.162Z,63.00
2022-12-17T23:24:52.350Z,62.90
2022-12-17T23:27:21.887Z,62.60
2022-12-17T23:29:50.141Z,62.40
2022-12-17T23:32:18.356Z,62.20
2022-12-17T23:34:46.483Z,62.10
2022-12-17T23:37:14.642Z,62.10
2022-12-17T23:39:42.783Z,62.00
2022-12-17T23:42:10.942Z,61.70
2022-12-17T23:44:40.637Z,61.40
2022-12-17T23:47:08.790Z,61.00
2022-12-17T23:49:36.976Z,60.80
2022-12-17T23:52:05.334Z,60.50
2022-12-17T23:54:33.541Z,60.20
2022-12-17T23:57:01.844Z,60.10
2022-12-17T23:59:30.000Z,60.20
